Time;durP1;ratioP1;P1;durP2;ratioP2;P2;SDS_P1;SDS_P2;PMS_P1;PMS_P2;Temp;Humidity;BMP_temperature;BMP_pressure;BME280_temperature;BME280_humidity;BME280_pressure;Samples;Min_cycle;Max_cycle;Signal;HPM_P1;HPM_P2
2021/08/14 00:01:21;;;;;;;;;;;;;;;27.35;43.28;97896.16;5066458;28;1608;-89
2021/08/14 00:03:46;;;;;;;;;;;;;;;27.43;43.21;97899.03;5059574;28;1223;-89
2021/08/14 00:06:14;;;;;;;;;;;;;;;27.39;43.28;97904.69;5067806;28;1476;-89
2021/08/14 00:08:39;;;;;;;;;;;;;;;27.38;43.06;97892.41;5069137;28;1302;-89
2021/08/14 00:11:05;;;;;;;;;;;;;;;27.42;43.02;97892.06;5058015;28;1919;-89
2021/08/14 00:13:30;;;;;;;;;;;;;;;27.36;43.38;97891.72;5067775;28;1731;-89
2021/08/14 00:15:58;;;;;;;;;;;;;;;27.34;43.11;97902.44;5069242;28;1338;-89
2021/08/14 00:18:24;;;;;;;;;;;;;;;27.38;43.17;97898.56;5057591;28;1306;-89
2021/08/14 00:20:49;;;;;;;;;;;;;;;27.43;42.98;97896.38;5067607;28;1576;-89
2021/08/14 00:23:14;;;;;;;;;;;;;;;27.34;43.14;97896.31;5069627;28;1120;-89
2021/08/14 00:25:39;;;;;;;;;;;;;;;27.34;43.08;97891.84;5067128;28;1194;-89
2021/08/14 00:28:04;;;;;;;;;;;;;;;27.33;43.27;97887.47;5067061;28;1682;-89
2021/08/14 00:30:30;;;;;;;;;;;;;;;27.42;43.16;97892.06;5069284;28;1913;-89
2021/08/14 00:32:55;;;;;;;;;;;;;;;27.35;43.38;97888.22;5068353;28;1144;-89
2021/08/14 00:35:20;;;;;;;;;;;;;;;27.36;43.32;97889.06;5066296;28;1548;-89
2021/08/14 00:37:45;;;;;;;;;;;;;;;27.33;43.28;97889.28;5068456;28;1358;-89
2021/08/14 00:40:11;;;;;;;;;;;;;;;27.43;43.16;97890.25;5058699;28;1210;-89
2021/08/14 00:42:36;;;;;;;;;;;;;;;27.31;43.34;97883.28;5066985;28;1667;-89
2021/08/14 00:45:02;;;;;;;;;;;;;;;27.40;43.05;97882.53;5083233;28;1312;-90
2021/08/14 00:47:27;;;;;;;;;;;;;;;27.44;43.08;97879.53;5084018;28;1403;-89
2021/08/14 00:49:53;;;;;;;;;;;;;;;27.38;43.18;97880.03;5060126;28;1180;-89
2021/08/14 00:52:18;;;;;;;;;;;;;;;27.24;43.34;97881.13;5067128;28;2028;-89
2021/08/14 00:54:43;;;;;;;;;;;;;;;27.32;43.28;97877.84;5069179;28;1097;-89
2021/08/14 00:57:08;;;;;;;;;;;;;;;27.42;42.94;97875.34;5064339;28;1643;-89
2021/08/14 00:59:33;;;;;;;;;;;;;;;27.44;43.04;97873.41;5063798;28;1542;-89
2021/08/14 01:02:08;;;;;;;;;;;;;;;27.31;43.25;97875.34;5052664;28;1384;-89
2021/08/14 01:04:33;;;;;;;;;;;;;;;27.38;43.27;97871.25;5064458;28;1089;-89
2021/08/14 01:06:58;;;;;;;;;;;;;;;27.44;42.91;97874.22;5065945;28;1572;-89
2021/08/14 01:09:25;;;;;;;;;;;;;;;27.42;43.12;97870.03;5057411;28;1331;-89
2021/08/14 01:11:50;;;;;;;;;;;;;;;27.40;43.28;97871.94;5067396;28;1933;-89
2021/08/14 01:14:15;;;;;;;;;;;;;;;27.43;43.28;97869.06;5058984;28;1196;-89
2021/08/14 01:16:41;;;;;;;;;;;;;;;27.37;43.28;97881.00;5065127;28;1564;-89
2021/08/14 01:19:06;;;;;;;;;;;;;;;27.40;43.19;97871.94;5067632;28;1279;-89
2021/08/14 01:21:31;;;;;;;;;;;;;;;27.31;43.36;97868.25;5055541;28;1559;-89
2021/08/14 01:23:57;;;;;;;;;;;;;;;27.41;42.84;97869.19;5067370;28;1548;-89
2021/08/14 01:26:22;;;;;;;;;;;;;;;27.47;43.25;97859.88;5068526;28;1152;-89
2021/08/14 01:28:47;;;;;;;;;;;;;;;27.35;43.20;97869.69;5055238;28;1608;-89
2021/08/14 01:31:13;;;;;;;;;;;;;;;27.38;43.44;97869.44;5077868;28;2030;-89
2021/08/14 01:33:39;;;;;;;;;;;;;;;27.39;43.10;97871.09;5071932;28;1187;-89
2021/08/14 01:36:05;;;;;;;;;;;;;;;27.45;42.93;97861.81;5071476;28;1658;-89
2021/08/14 01:38:30;;;;;;;;;;;;;;;27.38;42.96;97861.47;5061827;28;1601;-89
2021/08/14 01:40:55;;;;;;;;;;;;;;;27.35;43.50;97853.78;5068755;28;2009;-89
2021/08/14 01:43:20;;;;;;;;;;;;;;;27.35;43.42;97853.78;5071513;28;1658;-89
2021/08/14 01:45:48;;;;;;;;;;;;;;;27.30;43.59;97858.63;5071564;28;1176;-88
2021/08/14 01:48:14;;;;;;;;;;;;;;;27.47;43.08;97865.19;5061884;28;1208;-89
2021/08/14 01:50:39;;;;;;;;;;;;;;;27.38;43.20;97861.47;5070527;28;1961;-89
2021/08/14 01:53:04;;;;;;;;;;;;;;;27.43;42.94;97859.31;5071604;28;1374;-89
2021/08/14 01:55:29;;;;;;;;;;;;;;;27.43;43.27;97861.13;5071722;28;1140;-89
2021/08/14 01:57:55;;;;;;;;;;;;;;;27.46;43.23;97858.22;5069286;28;1583;-89
2021/08/14 02:00:20;;;;;;;;;;;;;;;27.38;43.37;97861.47;5072539;28;1156;-89
2021/08/14 02:02:45;;;;;;;;;;;;;;;27.38;43.13;97860.63;5070666;28;1179;-89
2021/08/14 02:05:11;;;;;;;;;;;;;;;27.47;43.27;97857.25;5069470;28;1556;-89
2021/08/14 02:07:36;;;;;;;;;;;;;;;27.41;43.32;97850.66;5068957;28;1386;-89
2021/08/14 02:10:01;;;;;;;;;;;;;;;27.45;43.14;97848.59;5070680;28;1902;-89
2021/08/14 02:12:26;;;;;;;;;;;;;;;27.40;43.42;97848.94;5059586;28;1622;-89
2021/08/14 02:14:51;;;;;;;;;;;;;;;27.37;43.32;97854.50;5069248;28;1462;-89
2021/08/14 02:17:17;;;;;;;;;;;;;;;27.32;43.15;97851.38;5071173;28;1294;-89
2021/08/14 02:19:42;;;;;;;;;;;;;;;27.39;43.18;97857.88;5061123;28;1164;-89
2021/08/14 02:22:07;;;;;;;;;;;;;;;27.41;42.93;97861.25;5069717;28;1572;-89
2021/08/14 02:24:34;;;;;;;;;;;;;;;27.43;43.05;97854.00;5067469;28;1804;-89
2021/08/14 02:27:00;;;;;;;;;;;;;;;27.39;43.30;97857.03;5068691;28;1827;-89
2021/08/14 02:29:25;;;;;;;;;;;;;;;27.39;43.37;97863.16;5056426;28;1375;-89
2021/08/14 02:31:51;;;;;;;;;;;;;;;27.41;43.05;97858.59;5070474;28;1969;-89
2021/08/14 02:34:16;;;;;;;;;;;;;;;27.40;43.33;97864.84;5069542;28;1295;-89
2021/08/14 02:36:41;;;;;;;;;;;;;;;27.32;43.33;97861.97;5069318;28;1556;-89
2021/08/14 02:39:06;;;;;;;;;;;;;;;27.27;43.39;97856.22;5059637;28;1377;-88
2021/08/14 02:41:31;;;;;;;;;;;;;;;27.33;43.48;97868.94;5071491;28;1203;-89
2021/08/14 02:43:57;;;;;;;;;;;;;;;27.38;43.25;97861.47;5066399;28;1631;-89
2021/08/14 02:46:22;;;;;;;;;;;;;;;27.42;43.12;97857.63;5071471;28;1163;-89
2021/08/14 02:48:47;;;;;;;;;;;;;;;27.44;43.24;97860.16;5069421;28;1370;-89
2021/08/14 02:51:13;;;;;;;;;;;;;;;27.41;43.16;97858.59;5060591;28;1906;-89
2021/08/14 02:53:38;;;;;;;;;;;;;;;27.42;43.17;97856.78;5069946;28;1557;-88
2021/08/14 02:56:04;;;;;;;;;;;;;;;27.37;43.36;97864.25;5071276;28;1111;-89
2021/08/14 02:58:29;;;;;;;;;;;;;;;27.26;43.62;97862.50;5070195;28;1587;-89
2021/08/14 03:00:54;;;;;;;;;;;;;;;27.31;43.55;97862.09;5070815;28;1093;-89
2021/08/14 03:03:19;;;;;;;;;;;;;;;27.37;43.18;97862.44;5059801;28;1468;-89
2021/08/14 03:05:45;;;;;;;;;;;;;;;27.32;43.32;97875.22;5060140;28;1187;-89
2021/08/14 03:08:10;;;;;;;;;;;;;;;27.38;43.31;97872.06;5067139;28;1509;-89
2021/08/14 03:10:38;;;;;;;;;;;;;;;27.27;43.57;97869.47;5070900;28;1977;-89
2021/08/14 03:13:04;;;;;;;;;;;;;;;27.41;43.30;97882.44;5056369;28;1656;-89
2021/08/14 03:15:29;;;;;;;;;;;;;;;27.38;43.43;97873.88;5060018;28;1357;-89
2021/08/14 03:17:54;;;;;;;;;;;;;;;27.39;43.21;97881.69;5069508;28;1300;-89
2021/08/14 03:20:20;;;;;;;;;;;;;;;27.42;43.48;97873.53;5057723;28;1581;-89
2021/08/14 03:22:45;;;;;;;;;;;;;;;27.36;43.44;97876.66;5061000;28;1283;-89
2021/08/14 03:25:10;;;;;;;;;;;;;;;27.44;43.25;97876.88;5069798;28;1176;-89
2021/08/14 03:27:35;;;;;;;;;;;;;;;27.40;43.17;97869.28;5060517;28;1700;-89
2021/08/14 03:30:00;;;;;;;;;;;;;;;27.47;43.09;97870.47;5065915;28;1510;-89
2021/08/14 03:32:25;;;;;;;;;;;;;;;27.40;43.32;97866.66;5059671;28;1973;-89
2021/08/14 03:34:51;;;;;;;;;;;;;;;27.35;43.55;97867.03;5069648;28;1179;-89
2021/08/14 03:37:16;;;;;;;;;;;;;;;27.30;43.56;97869.22;5069555;28;1559;-89
2021/08/14 03:39:41;;;;;;;;;;;;;;;27.36;43.33;97870.53;5070502;28;1231;-89
2021/08/14 03:42:06;;;;;;;;;;;;;;;27.34;43.51;97878.59;5066341;28;1567;-89
2021/08/14 03:44:31;;;;;;;;;;;;;;;27.33;43.59;97871.59;5069664;28;1228;-89
2021/08/14 03:46:57;;;;;;;;;;;;;;;27.37;43.44;97877.50;5068821;28;1159;-89
2021/08/14 03:49:22;;;;;;;;;;;;;;;27.30;43.49;97873.66;5068621;28;1371;-89
2021/08/14 03:51:47;;;;;;;;;;;;;;;27.42;43.31;97873.53;5064095;28;1906;-89
2021/08/14 03:54:12;;;;;;;;;;;;;;;27.29;43.30;97866.69;5069675;28;1207;-89
2021/08/14 03:56:37;;;;;;;;;;;;;;;27.34;43.40;97870.66;5069366;28;1183;-89
2021/08/14 03:59:03;;;;;;;;;;;;;;;27.59;42.98;97869.50;5023504;28;1735;-89
2021/08/14 04:01:28;;;;;;;;;;;;;;;27.45;43.33;97875.06;5069544;28;1132;-89
2021/08/14 04:03:53;;;;;;;;;;;;;;;27.43;43.27;97874.38;5068729;28;1184;-89
2021/08/14 04:06:18;;;;;;;;;;;;;;;27.38;43.24;97877.38;5068221;28;1580;-89
2021/08/14 04:08:43;;;;;;;;;;;;;;;27.40;43.44;97877.25;5067298;28;1303;-89
2021/08/14 04:11:09;;;;;;;;;;;;;;;27.34;43.33;97881.25;5067432;28;1902;-89
2021/08/14 04:13:34;;;;;;;;;;;;;;;27.35;43.46;97885.56;5063937;28;1783;-89
2021/08/14 04:15:59;;;;;;;;;;;;;;;27.28;43.48;97887.03;5059419;28;1243;-89
2021/08/14 04:18:24;;;;;;;;;;;;;;;27.28;43.61;97889.69;5066920;28;1308;-89
2021/08/14 04:20:50;;;;;;;;;;;;;;;27.36;43.18;97892.56;5069322;28;1186;-89
2021/08/14 04:23:15;;;;;;;;;;;;;;;27.41;43.48;97892.16;5067556;28;1533;-89
2021/08/14 04:25:40;;;;;;;;;;;;;;;27.30;43.40;97889.56;5069125;28;1696;-89
2021/08/14 04:28:05;;;;;;;;;;;;;;;27.30;43.49;97895.69;5066627;28;1521;-89
2021/08/14 04:30:30;;;;;;;;;;;;;;;27.36;43.40;97891.72;5057158;28;1910;-89
2021/08/14 04:32:56;;;;;;;;;;;;;;;27.31;43.50;97899.19;5069403;28;1124;-89
2021/08/14 04:35:21;;;;;;;;;;;;;;;27.41;43.47;97892.16;5067327;28;1564;-89
2021/08/14 04:37:46;;;;;;;;;;;;;;;27.35;43.42;97895.34;5069524;28;1399;-89
2021/08/14 04:40:13;;;;;;;;;;;;;;;27.47;43.00;97903.09;5068260;28;1758;-89
2021/08/14 04:42:38;;;;;;;;;;;;;;;27.36;43.12;97897.84;5057947;28;1545;-89
2021/08/14 04:45:04;;;;;;;;;;;;;;;27.43;43.10;97907.00;5065753;28;1290;-89
2021/08/14 04:47:29;;;;;;;;;;;;;;;27.33;43.25;97905.19;5059108;28;1488;-89
2021/08/14 04:49:54;;;;;;;;;;;;;;;27.34;43.68;97910.38;5057378;28;1219;-89
2021/08/14 04:52:19;;;;;;;;;;;;;;;27.35;43.53;97911.22;5066930;28;1960;-89
2021/08/14 04:54:45;;;;;;;;;;;;;;;27.30;43.74;97916.88;5067945;28;1349;-89
2021/08/14 04:57:10;;;;;;;;;;;;;;;27.34;43.33;97912.19;5057883;28;1570;-89
2021/08/14 04:59:35;;;;;;;;;;;;;;;27.36;43.60;97908.44;5066077;28;1893;-89
2021/08/14 05:02:03;;;;;;;;;;;;;;;27.39;43.23;97910.84;5068283;28;1358;-89
2021/08/14 05:04:28;;;;;;;;;;;;;;;27.43;43.24;97907.00;5068301;28;1360;-89
2021/08/14 05:06:53;;;;;;;;;;;;;;;27.42;43.24;97915.06;5071174;28;1307;-89
2021/08/14 05:09:19;;;;;;;;;;;;;;;27.41;43.53;97916.88;5061833;28;1577;-89
2021/08/14 05:11:44;;;;;;;;;;;;;;;27.37;43.32;97917.22;5070464;28;1975;-89
2021/08/14 05:14:09;;;;;;;;;;;;;;;27.30;43.41;97922.16;5071398;28;1170;-89
2021/08/14 05:16:36;;;;;;;;;;;;;;;27.42;43.46;97918.56;5070106;28;1381;-89
2021/08/14 05:19:01;;;;;;;;;;;;;;;27.42;43.37;97917.72;5070947;28;1252;-89
2021/08/14 05:21:26;;;;;;;;;;;;;;;27.34;43.68;97918.31;5071089;28;1643;-89
2021/08/14 05:23:52;;;;;;;;;;;;;;;27.42;43.25;97915.06;5058718;28;1498;-89
2021/08/14 05:26:17;;;;;;;;;;;;;;;27.32;43.56;97917.59;5072038;28;1295;-89
2021/08/14 05:28:42;;;;;;;;;;;;;;;27.33;43.56;97911.31;5070152;28;1572;-89
2021/08/14 05:31:07;;;;;;;;;;;;;;;27.41;43.30;97913.34;5071834;28;1902;-89
2021/08/14 05:33:32;;;;;;;;;;;;;;;27.40;43.28;97916.97;5071040;28;1164;-89
2021/08/14 05:35:58;;;;;;;;;;;;;;;27.37;43.44;97915.41;5060956;28;1593;-89
2021/08/14 05:38:23;;;;;;;;;;;;;;;27.21;44.00;97925.56;5071976;28;1376;-89
2021/08/14 05:40:48;;;;;;;;;;;;;;;27.25;43.92;97924.34;5072776;28;1187;-89
2021/08/14 05:43:13;;;;;;;;;;;;;;;27.27;43.65;97930.38;5043597;28;1571;-89
2021/08/14 05:45:38;;;;;;;;;;;;;;;27.36;43.24;97929.63;5072083;28;1492;-89
2021/08/14 05:48:04;;;;;;;;;;;;;;;27.40;43.31;97932.84;5060585;28;1401;-89
2021/08/14 05:50:29;;;;;;;;;;;;;;;27.42;43.24;97937.09;5059306;28;1967;-89
2021/08/14 05:52:54;;;;;;;;;;;;;;;27.35;43.64;97938.53;5071415;28;1159;-89
2021/08/14 05:55:20;;;;;;;;;;;;;;;27.36;43.60;97934.94;5070798;28;1240;-89
2021/08/14 05:57:45;;;;;;;;;;;;;;;27.43;43.08;97932.63;5070953;28;1583;-89
2021/08/14 06:00:11;;;;;;;;;;;;;;;27.42;43.38;97939.75;5070421;28;2006;-89
2021/08/14 06:02:36;;;;;;;;;;;;;;;27.36;43.41;97939.38;5071587;28;1195;-89
2021/08/14 06:05:01;;;;;;;;;;;;;;;27.39;43.42;97937.31;5068643;28;1587;-89
2021/08/14 06:07:26;;;;;;;;;;;;;;;27.45;43.21;97933.34;5072011;28;1330;-89
2021/08/14 06:09:51;;;;;;;;;;;;;;;27.37;43.50;97941.91;5071305;28;1187;-89
2021/08/14 06:12:17;;;;;;;;;;;;;;;27.39;43.32;97936.47;5054186;28;1901;-89
2021/08/14 06:14:42;;;;;;;;;;;;;;;27.32;43.69;97951.16;5058589;28;1302;-89
2021/08/14 06:17:07;;;;;;;;;;;;;;;27.30;43.79;97945.16;5066295;28;1851;-89
2021/08/14 06:19:32;;;;;;;;;;;;;;;27.40;43.31;97949.59;5071945;28;1424;-89
2021/08/14 06:21:57;;;;;;;;;;;;;;;27.42;43.51;97955.63;5057189;28;1644;-89
2021/08/14 06:24:23;;;;;;;;;;;;;;;27.41;43.35;97950.44;5071509;28;1238;-89
2021/08/14 06:26:48;;;;;;;;;;;;;;;27.34;43.67;97958.06;5069610;28;1622;-89
2021/08/14 06:29:13;;;;;;;;;;;;;;;27.32;43.53;97944.06;5060061;28;1290;-89
2021/08/14 06:31:38;;;;;;;;;;;;;;;27.40;43.37;97954.88;5070156;28;1963;-89
2021/08/14 06:34:03;;;;;;;;;;;;;;;27.45;43.22;97950.06;5068426;28;1521;-89
2021/08/14 06:36:29;;;;;;;;;;;;;;;27.37;43.19;97946.38;5060783;28;1139;-89
2021/08/14 06:38:56;;;;;;;;;;;;;;;27.35;43.64;97949.13;5060206;28;1595;-89
2021/08/14 06:41:21;;;;;;;;;;;;;;;27.45;43.19;97941.28;5071388;28;1166;-89
2021/08/14 06:43:46;;;;;;;;;;;;;;;27.39;43.50;97944.44;5069067;28;1564;-89
2021/08/14 06:46:11;;;;;;;;;;;;;;;27.37;43.33;97944.56;5071296;28;1127;-89
2021/08/14 06:48:37;;;;;;;;;;;;;;;27.35;43.50;97949.13;5069807;28;1250;-89
2021/08/14 06:51:02;;;;;;;;;;;;;;;27.44;43.23;97950.22;5070852;28;1901;-89
2021/08/14 06:53:27;;;;;;;;;;;;;;;27.37;43.49;97949.84;5064640;28;1626;-89
2021/08/14 06:55:52;;;;;;;;;;;;;;;27.42;43.54;97949.50;5070986;28;1160;-89
2021/08/14 06:58:18;;;;;;;;;;;;;;;27.43;43.42;97957.31;5068277;28;1772;-89
2021/08/14 07:00:43;;;;;;;;;;;;;;;27.41;43.61;97951.31;5071671;28;1243;-89
2021/08/14 07:03:08;;;;;;;;;;;;;;;27.44;43.42;97951.03;5069504;28;1517;-89
2021/08/14 07:05:34;;;;;;;;;;;;;;;27.39;43.57;97955.84;5068327;28;1540;-89
2021/08/14 07:07:59;;;;;;;;;;;;;;;27.36;43.70;97953.47;5069704;28;1260;-89
2021/08/14 07:10:24;;;;;;;;;;;;;;;27.45;43.33;97959.84;5070190;28;1976;-89
2021/08/14 07:12:49;;;;;;;;;;;;;;;27.42;43.40;97957.44;5069088;28;1517;-87
2021/08/14 07:15:15;;;;;;;;;;;;;;;27.40;43.41;97962.84;5067433;28;1512;-87
2021/08/14 07:17:40;;;;;;;;;;;;;;;27.41;43.41;97966.31;5069474;28;1473;-87
2021/08/14 07:20:05;;;;;;;;;;;;;;;27.45;43.28;97963.31;5069838;28;1298;-87
2021/08/14 07:22:30;;;;;;;;;;;;;;;27.37;43.50;97967.56;5067157;28;1564;-87
2021/08/14 07:24:56;;;;;;;;;;;;;;;27.36;43.27;97966.72;5070426;28;1180;-88
2021/08/14 07:27:21;;;;;;;;;;;;;;;27.35;43.54;97969.50;5066809;28;1604;-87
2021/08/14 07:29:47;;;;;;;;;;;;;;;27.45;43.25;97968.63;5069596;28;1213;-87
2021/08/14 07:32:13;;;;;;;;;;;;;;;27.39;43.39;97968.25;5068821;28;1989;-87
2021/08/14 07:34:40;;;;;;;;;;;;;;;27.42;43.37;97962.75;5069592;28;1714;-87
2021/08/14 07:37:05;;;;;;;;;;;;;;;27.40;43.38;97954.06;5068722;28;1635;-87
2021/08/14 07:39:30;;;;;;;;;;;;;;;27.40;43.44;97959.34;5068629;28;1466;-87
2021/08/14 07:41:56;;;;;;;;;;;;;;;27.42;43.58;97958.28;5068767;28;1500;-88
2021/08/14 07:44:21;;;;;;;;;;;;;;;27.40;43.45;97954.06;5058760;28;1168;-88
2021/08/14 07:46:47;;;;;;;;;;;;;;;27.38;43.40;97945.41;5067982;28;1021;-87
2021/08/14 07:49:12;;;;;;;;;;;;;;;27.37;43.49;97949.84;5068473;28;1385;-88
2021/08/14 07:51:37;;;;;;;;;;;;;;;27.36;43.75;97950.81;5068354;28;1981;-87
2021/08/14 07:54:02;;;;;;;;;;;;;;;27.37;43.34;97952.50;5069220;28;1167;-87
2021/08/14 07:56:27;;;;;;;;;;;;;;;27.35;43.55;97948.31;5070723;28;1179;-88
2021/08/14 07:58:53;;;;;;;;;;;;;;;27.42;43.16;97950.34;5066501;28;2165;-87
2021/08/14 08:01:18;;;;;;;;;;;;;;;27.47;43.45;97952.59;5066634;28;1510;-87
2021/08/14 08:03:43;;;;;;;;;;;;;;;27.43;43.11;97943.22;5059885;28;1238;-88
2021/08/14 08:06:08;;;;;;;;;;;;;;;27.34;43.74;97944.81;5068738;28;1194;-87
2021/08/14 08:08:34;;;;;;;;;;;;;;;27.41;43.57;97946.00;5069565;28;1288;-87
2021/08/14 08:10:59;;;;;;;;;;;;;;;27.39;43.37;97947.06;5057047;28;1989;-87
2021/08/14 08:13:25;;;;;;;;;;;;;;;27.43;43.40;97937.94;5069689;28;1624;-87
2021/08/14 08:15:50;;;;;;;;;;;;;;;27.39;43.59;97945.25;5068917;28;1179;-87
2021/08/14 08:18:15;;;;;;;;;;;;;;;27.43;43.28;97937.94;5094933;28;1377;-86
2021/08/14 08:20:40;;;;;;;;;;;;;;;27.40;43.54;97938.16;5090078;28;1611;-88
2021/08/14 08:23:05;;;;;;;;;;;;;;;27.35;43.29;97935.91;5067027;28;1549;-88
2021/08/14 08:25:31;;;;;;;;;;;;;;;27.43;43.29;97936.13;5069289;28;1179;-87
2021/08/14 08:28:01;;;;;;;;;;;;;;;27.41;43.49;97935.41;5066602;28;1579;-87
2021/08/14 08:30:26;;;;;;;;;;;;;;;27.38;43.43;97932.16;5069943;28;1906;-87
2021/08/14 08:32:51;;;;;;;;;;;;;;;27.40;43.44;97931.06;5068959;28;1112;-87
2021/08/14 08:35:16;;;;;;;;;;;;;;;27.44;43.36;97923.72;5068946;28;1566;-87
2021/08/14 08:37:42;;;;;;;;;;;;;;;27.41;43.45;97927.47;5066808;28;1595;-87
2021/08/14 08:40:07;;;;;;;;;;;;;;;27.46;43.27;97925.28;5072008;28;1198;-87
2021/08/14 08:42:32;;;;;;;;;;;;;;;27.46;43.14;97916.47;5070445;28;1580;-88
2021/08/14 08:44:58;;;;;;;;;;;;;;;27.36;43.53;97929.63;5073750;28;1159;-87
2021/08/14 08:47:23;;;;;;;;;;;;;;;27.42;43.37;97917.72;5071934;28;1597;-88
2021/08/14 08:49:48;;;;;;;;;;;;;;;27.38;43.33;97914.44;5061008;28;1594;-88
2021/08/14 08:52:13;;;;;;;;;;;;;;;27.34;43.33;97914.84;5072374;28;1973;-87
2021/08/14 08:54:39;;;;;;;;;;;;;;;27.37;43.37;97910.13;5072611;28;1461;-87
2021/08/14 08:57:04;;;;;;;;;;;;;;;27.43;43.21;97920.22;5062071;28;1656;-87
2021/08/14 08:59:29;;;;;;;;;;;;;;;27.43;43.47;97917.59;5072479;28;1322;-87
2021/08/14 09:01:55;;;;;;;;;;;;;;;27.45;43.02;97906.84;5072699;28;1235;-87
2021/08/14 09:04:22;;;;;;;;;;;;;;;27.47;42.93;97908.41;5072426;28;1253;-87
2021/08/14 09:06:48;;;;;;;;;;;;;;;27.42;43.38;97905.31;5072195;28;1552;-87
2021/08/14 09:09:14;;;;;;;;;;;;;;;27.42;43.34;97907.13;5059193;28;1604;-87
2021/08/14 09:11:53;;;;;;;;;;;;;;;27.28;43.75;97905.56;5073355;28;1914;-87
2021/08/14 09:14:18;;;;;;;;;;;;;;;27.44;43.21;97905.19;5062450;28;1132;-87
2021/08/14 09:16:43;;;;;;;;;;;;;;;27.40;43.17;97891.31;5072473;28;1544;-87
2021/08/14 09:19:08;;;;;;;;;;;;;;;27.38;43.12;97901.22;5072653;28;1291;-87
2021/08/14 09:21:34;;;;;;;;;;;;;;;27.46;43.25;97898.78;5061914;28;1643;-87
2021/08/14 09:24:04;;;;;;;;;;;;;;;27.40;43.55;97899.28;5071085;28;1408;-87
2021/08/14 09:26:31;;;;;;;;;;;;;;;27.44;43.46;97897.22;5073187;28;962;-87
2021/08/14 09:29:03;;;;;;;;;;;;;;;27.42;43.17;97894.72;5067089;28;1576;-87
2021/08/14 09:31:44;;;;;;;;;;;;;;;27.40;43.45;97895.78;5072262;28;1981;-87
2021/08/14 09:34:19;;;;;;;;;;;;;;;27.41;43.50;97881.56;5070763;28;1153;-87
2021/08/14 09:36:58;;;;;;;;;;;;;;;27.42;43.31;97883.28;5059676;28;1557;-87
2021/08/14 09:39:23;;;;;;;;;;;;;;;27.46;43.13;97879.41;5072638;28;1346;-87
2021/08/14 09:41:48;;;;;;;;;;;;;;;27.49;43.16;97882.66;5070623;28;1662;-87
2021/08/14 09:44:14;;;;;;;;;;;;;;;27.44;43.04;97884.00;5061557;28;1304;-88
2021/08/14 09:46:41;;;;;;;;;;;;;;;27.33;43.54;97879.53;5069392;28;1186;-88
2021/08/14 09:49:06;;;;;;;;;;;;;;;27.44;43.27;97873.41;5061636;28;1321;-87
2021/08/14 09:51:32;;;;;;;;;;;;;;;27.45;42.94;97875.91;5069249;28;1977;-87
2021/08/14 09:53:57;;;;;;;;;;;;;;;27.39;43.52;97879.06;5057957;28;1443;-87
2021/08/14 09:56:24;;;;;;;;;;;;;;;27.45;43.17;97875.06;5062599;28;1253;-88
2021/08/14 09:58:49;;;;;;;;;;;;;;;27.45;43.34;97869.78;5060213;28;1649;-88
2021/08/14 10:01:14;;;;;;;;;;;;;;;27.38;43.31;97866.78;5071789;28;1375;-87
2021/08/14 10:03:39;;;;;;;;;;;;;;;27.42;43.54;97865.56;5071466;28;1155;-87
2021/08/14 10:06:05;;;;;;;;;;;;;;;27.46;43.23;97863.50;5060716;28;1392;-87
2021/08/14 10:08:30;;;;;;;;;;;;;;;27.39;43.28;97862.31;5060958;28;1769;-88
2021/08/14 10:10:55;;;;;;;;;;;;;;;27.42;43.28;97854.97;5060322;28;1992;-87
2021/08/14 10:13:21;;;;;;;;;;;;;;;27.36;43.24;97860.78;5070183;28;1615;-87
2021/08/14 10:15:46;;;;;;;;;;;;;;;27.46;43.15;97851.09;5066611;28;1528;-88
2021/08/14 10:18:11;;;;;;;;;;;;;;;27.43;43.22;97855.81;5070579;28;1230;-87
2021/08/14 10:20:36;;;;;;;;;;;;;;;27.40;43.43;97850.75;5067913;28;1441;-88
2021/08/14 10:23:02;;;;;;;;;;;;;;;27.40;43.55;97851.59;5071731;28;1052;-87
2021/08/14 10:25:28;;;;;;;;;;;;;;;27.46;43.20;97851.09;5076216;28;1765;-87
2021/08/14 10:27:58;;;;;;;;;;;;;;;27.44;43.07;97847.75;5059067;28;1558;-88
2021/08/14 10:30:42;;;;;;;;;;;;;;;27.47;43.14;97847.47;5062557;28;1971;-87
2021/08/14 10:33:08;;;;;;;;;;;;;;;27.42;43.21;97840.91;5069492;28;1399;-88
2021/08/14 10:35:34;;;;;;;;;;;;;;;27.51;43.01;97842.78;5071732;28;1140;-87
2021/08/14 10:37:59;;;;;;;;;;;;;;;27.46;43.05;97840.50;5058832;28;1605;-87
2021/08/14 10:40:24;;;;;;;;;;;;;;;27.44;43.30;97831.84;5067501;28;1588;-87
2021/08/14 10:42:51;;;;;;;;;;;;;;;27.44;43.38;97826.56;5070086;28;1639;-87
2021/08/14 10:45:16;;;;;;;;;;;;;;;27.47;43.24;97830.75;5069851;28;1543;-88
2021/08/14 10:47:42;;;;;;;;;;;;;;;27.38;43.51;97827.06;5069572;28;1310;-88
2021/08/14 10:50:08;;;;;;;;;;;;;;;27.49;43.01;97821.72;5069490;28;1245;-87
2021/08/14 10:52:33;;;;;;;;;;;;;;;27.50;43.10;97819.91;5059769;28;1969;-87
2021/08/14 10:54:58;;;;;;;;;;;;;;;27.49;43.17;97829.69;5069886;28;1654;-87
2021/08/14 10:57:42;;;;;;;;;;;;;;;27.46;43.29;97821.13;5069572;28;1990;-87
2021/08/14 11:00:17;;;;;;;;;;;;;;;27.44;43.34;97823.91;5067570;28;1688;-88
2021/08/14 11:02:55;;;;;;;;;;;;;;;27.43;43.34;97819.56;5069500;28;1081;-88
2021/08/14 11:05:24;;;;;;;;;;;;;;;27.36;43.37;97804.31;5060194;28;1240;-87
2021/08/14 11:07:49;;;;;;;;;;;;;;;27.45;43.17;97809.69;5058398;28;1756;-88
2021/08/14 11:10:14;;;;;;;;;;;;;;;27.43;43.46;97802.84;5060654;28;1230;-87
2021/08/14 11:12:40;;;;;;;;;;;;;;;27.43;43.31;97798.38;5070007;28;1918;-87
2021/08/14 11:15:25;;;;;;;;;;;;;;;27.48;42.92;97798.00;5069704;28;1304;-87
2021/08/14 11:17:51;;;;;;;;;;;;;;;27.48;43.12;97792.69;5070515;28;1275;-87
2021/08/14 11:20:19;;;;;;;;;;;;;;;27.50;43.12;97794.28;5059338;28;1214;-87
2021/08/14 11:22:44;;;;;;;;;;;;;;;27.39;43.21;97790.81;5068000;28;1564;-87
2021/08/14 11:25:19;;;;;;;;;;;;;;;27.43;43.24;97784.31;5052374;28;1590;-88
2021/08/14 11:27:52;;;;;;;;;;;;;;;27.43;43.16;97781.66;5067493;28;1714;-87
2021/08/14 11:30:22;;;;;;;;;;;;;;;27.49;43.23;97783.78;5056572;28;1461;-88
2021/08/14 11:32:47;;;;;;;;;;;;;;;27.49;42.91;97771.41;5059785;28;1965;-88
2021/08/14 11:35:12;;;;;;;;;;;;;;;27.47;43.14;97772.47;5067310;28;1945;-87
2021/08/14 11:37:57;;;;;;;;;;;;;;;27.40;43.23;97771.31;5060573;28;1341;-87
2021/08/14 11:40:26;;;;;;;;;;;;;;;27.44;43.33;97770.94;5058947;28;1194;-87
2021/08/14 11:42:53;;;;;;;;;;;;;;;27.44;43.17;97768.28;5068053;28;1607;-88
2021/08/14 11:45:18;;;;;;;;;;;;;;;27.42;42.99;97762.28;5059388;28;1340;-88
2021/08/14 11:47:44;;;;;;;;;;;;;;;27.45;43.10;97758.53;5060565;28;1376;-88
2021/08/14 11:50:09;;;;;;;;;;;;;;;27.48;43.22;97759.09;5067228;28;1259;-87
2021/08/14 11:52:34;;;;;;;;;;;;;;;27.48;43.34;97750.31;5039550;28;1969;-88
2021/08/14 11:55:09;;;;;;;;;;;;;;;27.46;43.35;97753.09;5068770;28;1119;-87
2021/08/14 11:57:36;;;;;;;;;;;;;;;27.49;43.24;97759.94;5067688;28;1600;-87
2021/08/14 12:00:05;;;;;;;;;;;;;;;27.40;43.45;97750.09;5057990;28;1519;-87
2021/08/14 12:02:31;;;;;;;;;;;;;;;27.46;43.39;97758.38;5070202;28;1040;-87
2021/08/14 12:04:56;;;;;;;;;;;;;;;27.44;43.19;97755.03;5069202;28;1120;-87
2021/08/14 12:07:22;;;;;;;;;;;;;;;27.45;43.49;97745.28;5065908;28;1528;-87
2021/08/14 12:09:48;;;;;;;;;;;;;;;27.44;43.12;97752.41;5059334;28;1195;-87
2021/08/14 12:12:18;;;;;;;;;;;;;;;27.51;43.17;97752.72;5057381;28;1910;-87
2021/08/14 12:14:43;;;;;;;;;;;;;;;27.48;43.14;97748.50;5069017;28;1231;-87
2021/08/14 12:17:08;;;;;;;;;;;;;;;27.43;43.38;97748.06;5069012;28;1160;-87
2021/08/14 12:19:34;;;;;;;;;;;;;;;27.32;43.15;97747.25;5068017;28;1593;-87
2021/08/14 12:22:10;;;;;;;;;;;;;;;27.40;43.55;97743.00;5068831;28;1269;-87
2021/08/14 12:24:35;;;;;;;;;;;;;;;27.46;43.25;97741.66;5059601;28;1200;-88
2021/08/14 12:27:00;;;;;;;;;;;;;;;27.46;43.37;97731.91;5064560;28;1563;-87
2021/08/14 12:29:25;;;;;;;;;;;;;;;27.45;43.29;97732.03;5070189;28;1381;-87
2021/08/14 12:31:57;;;;;;;;;;;;;;;27.45;43.08;97732.03;5065265;28;1977;-87
2021/08/14 12:34:23;;;;;;;;;;;;;;;27.49;43.24;97730.81;5070084;28;1218;-88
2021/08/14 12:36:58;;;;;;;;;;;;;;;27.47;43.38;97725.63;5059220;28;1120;-88
2021/08/14 12:39:41;;;;;;;;;;;;;;;27.43;43.30;97724.22;5065869;28;1584;-87
2021/08/14 12:42:12;;;;;;;;;;;;;;;27.41;43.45;97720.88;5056729;28;1503;-88
2021/08/14 12:44:41;;;;;;;;;;;;;;;27.43;43.14;97720.75;5059675;28;1302;-87
2021/08/14 12:47:07;;;;;;;;;;;;;;;27.45;43.26;97718.78;5060134;28;1351;-87
2021/08/14 12:49:32;;;;;;;;;;;;;;;27.45;43.04;97716.16;5068243;28;1411;-88
2021/08/14 12:52:02;;;;;;;;;;;;;;;27.45;43.07;97719.63;5067838;28;2074;-87